createdAt,value
2019-03-29T00:03:35.067Z,9.47
2019-03-29T00:08:39.567Z,9.36
2019-03-29T00:13:43.970Z,9.39
2019-03-29T00:18:48.329Z,9.33
2019-03-29T00:24:05.924Z,9.23
2019-03-29T00:28:59.126Z,9.16
2019-03-29T00:34:03.501Z,9.14
2019-03-29T00:39:08.062Z,9.13
2019-03-29T00:44:12.429Z,9.28
2019-03-29T00:49:16.833Z,9.46
2019-03-29T00:54:21.195Z,9.34
2019-03-29T00:59:25.577Z,9.44
2019-03-29T01:04:29.968Z,9.42
2019-03-29T01:09:34.337Z,9.33
2019-03-29T01:14:38.690Z,9.52
2019-03-29T01:19:43.056Z,9.36
2019-03-29T01:24:47.448Z,9.48
2019-03-29T01:29:51.887Z,9.33
2019-03-29T01:34:56.314Z,9.18
2019-03-29T01:40:00.710Z,9.29
2019-03-29T01:45:07.420Z,9.29
2019-03-29T01:50:11.876Z,9.15
2019-03-29T01:55:16.330Z,9.28
2019-03-29T02:00:32.448Z,9.33
2019-03-29T02:05:36.863Z,9.21
2019-03-29T02:10:41.241Z,9.10
2019-03-29T02:15:45.600Z,9.02
2019-03-29T02:20:50.151Z,9.03
2019-03-29T02:25:54.835Z,9.09
2019-03-29T02:30:59.780Z,9.09
2019-03-29T02:36:05.662Z,9.21
2019-03-29T02:41:10.595Z,9.34
2019-03-29T02:46:14.968Z,9.26
2019-03-29T02:51:19.390Z,9.34
2019-03-29T02:56:23.754Z,9.26
2019-03-29T03:01:28.109Z,9.16
2019-03-29T03:06:32.580Z,8.92
2019-03-29T03:11:36.981Z,9.28
2019-03-29T03:16:41.367Z,9.17
2019-03-29T03:21:45.828Z,9.04
2019-03-29T03:26:50.251Z,9.15
2019-03-29T03:31:54.603Z,9.14
2019-03-29T03:37:00.193Z,9.27
2019-03-29T03:42:04.556Z,9.25
2019-03-29T03:47:08.970Z,9.29
2019-03-29T03:52:13.341Z,9.12
2019-03-29T03:57:18.025Z,9.03
2019-03-29T04:02:22.410Z,9.17
2019-03-29T04:07:26.798Z,9.20
2019-03-29T04:12:31.204Z,9.16
2019-03-29T04:17:35.563Z,9.17
2019-03-29T04:22:39.945Z,9.19
2019-03-29T04:27:44.419Z,9.18
2019-03-29T04:32:48.798Z,9.15
2019-03-29T04:37:53.218Z,9.17
2019-03-29T04:42:57.577Z,9.26
2019-03-29T04:48:02.014Z,9.17
2019-03-29T04:53:06.329Z,9.22
2019-03-29T04:58:10.861Z,9.37
2019-03-29T05:03:15.282Z,8.95
2019-03-29T05:08:19.683Z,8.95
2019-03-29T05:13:24.056Z,8.87
2019-03-29T05:18:28.477Z,8.85
2019-03-29T05:23:32.829Z,8.91
2019-03-29T05:28:37.297Z,9.11
2019-03-29T05:33:41.654Z,9.02
2019-03-29T05:38:46.038Z,9.06
2019-03-29T05:43:50.389Z,9.08
2019-03-29T05:48:54.849Z,9.31
2019-03-29T05:53:59.242Z,8.98
2019-03-29T05:59:03.697Z,9.12
2019-03-29T06:04:08.100Z,9.20
2019-03-29T06:09:12.439Z,9.21
2019-03-29T06:14:16.868Z,9.54
2019-03-29T06:19:21.193Z,9.17
2019-03-29T06:24:26.518Z,9.07
2019-03-29T06:29:30.939Z,9.60
2019-03-29T06:34:35.273Z,9.64
2019-03-29T06:39:39.824Z,9.60
2019-03-29T06:44:44.547Z,9.70
2019-03-29T06:49:49.031Z,10.08
2019-03-29T06:54:54.672Z,9.92
2019-03-29T06:59:59.025Z,10.09
2019-03-29T07:05:03.379Z,9.83
2019-03-29T07:10:07.732Z,9.51
2019-03-29T07:15:12.186Z,9.68
2019-03-29T07:20:17.648Z,9.80
2019-03-29T07:25:22.188Z,10.05
2019-03-29T07:30:26.540Z,10.02
2019-03-29T07:35:31.072Z,9.96
2019-03-29T07:40:37.348Z,10.59
2019-03-29T07:45:41.873Z,10.60
2019-03-29T07:50:46.273Z,10.83
2019-03-29T07:55:50.711Z,10.99
2019-03-29T08:00:58.401Z,10.40
2019-03-29T08:06:02.555Z,10.61
2019-03-29T08:11:06.883Z,10.67
2019-03-29T08:16:11.303Z,11.02
2019-03-29T08:21:15.658Z,11.19
2019-03-29T08:26:20.011Z,11.09
2019-03-29T08:31:24.401Z,11.60
2019-03-29T08:36:28.796Z,11.24
2019-03-29T08:41:33.146Z,11.37
2019-03-29T08:46:37.541Z,11.31
2019-03-29T08:51:42.111Z,11.30
2019-03-29T08:56:46.476Z,10.95
2019-03-29T09:01:50.848Z,11.43
2019-03-29T09:06:55.286Z,11.59
2019-03-29T09:12:13.410Z,12.02
2019-03-29T09:17:06.016Z,12.04
2019-03-29T09:22:10.403Z,12.21
2019-03-29T09:27:15.475Z,12.10
2019-03-29T09:32:19.964Z,12.47
2019-03-29T09:37:24.386Z,12.03
2019-03-29T09:42:30.192Z,12.39
2019-03-29T09:47:40.179Z,12.25
2019-03-29T09:52:41.185Z,12.62
2019-03-29T09:57:45.537Z,12.62
2019-03-29T10:02:49.939Z,11.95
2019-03-29T10:07:54.305Z,12.27
2019-03-29T10:12:58.710Z,12.05
2019-03-29T10:18:03.087Z,12.14
2019-03-29T10:23:07.440Z,12.04
2019-03-29T10:28:11.852Z,12.38
2019-03-29T10:33:16.197Z,12.26
2019-03-29T10:38:20.582Z,12.47
2019-03-29T10:43:24.995Z,12.28
2019-03-29T10:48:29.353Z,12.58
2019-03-29T10:53:33.695Z,12.17
2019-03-29T10:58:38.095Z,12.36
2019-03-29T11:03:42.469Z,12.51
2019-03-29T11:08:46.944Z,12.81
2019-03-29T11:13:56.411Z,12.26
2019-03-29T11:18:58.965Z,13.27
2019-03-29T11:24:03.390Z,12.45
2019-03-29T11:29:07.760Z,12.76
2019-03-29T11:34:12.127Z,13.11
2019-03-29T11:39:16.637Z,12.88
2019-03-29T11:44:20.998Z,12.89
2019-03-29T11:49:25.349Z,12.90
2019-03-29T11:54:29.734Z,12.94
2019-03-29T11:59:35.180Z,13.05
2019-03-29T12:04:39.567Z,13.29
2019-03-29T12:09:44.101Z,13.45
2019-03-29T12:14:48.477Z,13.56
2019-03-29T12:19:52.955Z,13.80
2019-03-29T12:24:57.277Z,13.69
2019-03-29T12:30:01.669Z,13.44
2019-03-29T12:35:09.867Z,13.42
2019-03-29T12:40:13.477Z,13.33
2019-03-29T12:45:17.888Z,13.49
2019-03-29T12:50:22.265Z,13.51
2019-03-29T12:55:26.650Z,13.70
2019-03-29T13:00:31.264Z,13.11
2019-03-29T13:05:35.614Z,13.28
2019-03-29T13:10:42.489Z,13.18
2019-03-29T13:15:46.093Z,13.16
2019-03-29T13:20:50.448Z,13.00
2019-03-29T13:25:54.845Z,13.14
2019-03-29T13:30:59.201Z,13.24
2019-03-29T13:36:03.577Z,13.20
2019-03-29T13:41:07.989Z,13.30
2019-03-29T13:46:12.335Z,13.20
2019-03-29T13:51:17.781Z,13.37
2019-03-29T13:56:22.115Z,13.27
2019-03-29T14:01:26.493Z,13.19
2019-03-29T14:06:30.864Z,13.48
2019-03-29T14:11:35.250Z,13.29
2019-03-29T14:16:39.712Z,13.49
2019-03-29T14:21:44.036Z,13.69
2019-03-29T14:26:48.422Z,13.56
2019-03-29T14:31:54.317Z,13.48
2019-03-29T14:36:59.440Z,13.53
2019-03-29T14:42:03.849Z,13.50
2019-03-29T14:47:08.195Z,13.54
2019-03-29T14:52:12.539Z,13.74
2019-03-29T14:57:16.932Z,13.60
2019-03-29T15:02:22.315Z,13.65
2019-03-29T15:07:27.424Z,13.65
2019-03-29T15:12:33.012Z,13.63
2019-03-29T15:17:37.392Z,13.71
2019-03-29T15:22:41.862Z,13.65
2019-03-29T15:27:46.232Z,13.61
2019-03-29T15:32:50.594Z,13.61
2019-03-29T15:37:54.911Z,13.60
2019-03-29T15:42:59.314Z,13.76
2019-03-29T15:48:03.675Z,13.60
2019-03-29T15:53:08.078Z,13.64
2019-03-29T15:58:12.492Z,13.63
2019-03-29T16:03:16.878Z,13.72
2019-03-29T16:08:21.216Z,13.80
2019-03-29T16:13:25.565Z,13.81
2019-03-29T16:18:29.983Z,13.67
2019-03-29T16:23:34.347Z,13.80
2019-03-29T16:28:38.797Z,13.75
2019-03-29T16:33:43.237Z,13.68
2019-03-29T16:38:47.968Z,13.61
2019-03-29T16:43:52.319Z,13.53
2019-03-29T16:48:56.784Z,13.59
2019-03-29T16:54:01.193Z,13.44
2019-03-29T16:59:05.779Z,13.46
2019-03-29T17:04:10.298Z,13.45
2019-03-29T17:09:15.738Z,13.39
2019-03-29T17:14:20.106Z,13.40
2019-03-29T17:19:24.495Z,13.20
2019-03-29T17:24:28.907Z,13.11
2019-03-29T17:29:33.704Z,13.00
2019-03-29T17:34:38.321Z,12.95
2019-03-29T17:39:42.679Z,12.89
2019-03-29T17:44:48.045Z,12.81
2019-03-29T17:49:52.369Z,12.83
2019-03-29T17:54:56.860Z,12.69
2019-03-29T18:00:02.062Z,12.60
2019-03-29T18:05:07.818Z,12.37
2019-03-29T18:10:12.370Z,12.44
2019-03-29T18:15:17.109Z,12.17
2019-03-29T18:20:23.946Z,12.05
2019-03-29T18:25:33.386Z,12.06
2019-03-29T18:30:41.836Z,11.84
2019-03-29T18:35:51.031Z,11.74
2019-03-29T18:40:55.440Z,11.73
2019-03-29T18:46:04.783Z,11.62
2019-03-29T18:51:10.811Z,11.58
2019-03-29T18:56:15.173Z,11.45
2019-03-29T19:01:19.562Z,11.49
2019-03-29T19:06:23.948Z,11.44
2019-03-29T19:11:28.308Z,11.00
2019-03-29T19:16:32.721Z,11.02
2019-03-29T19:21:37.106Z,11.01
2019-03-29T19:26:41.519Z,10.86
2019-03-29T19:31:46.225Z,10.77
2019-03-29T19:36:50.899Z,10.82
2019-03-29T19:41:56.273Z,10.28
2019-03-29T19:47:12.703Z,10.33
2019-03-29T19:52:06.942Z,10.00
2019-03-29T19:57:11.306Z,9.90
2019-03-29T20:02:15.646Z,9.98
2019-03-29T20:07:20.449Z,9.97
2019-03-29T20:12:25.288Z,9.79
2019-03-29T20:17:30.730Z,9.71
2019-03-29T20:22:35.091Z,9.62
2019-03-29T20:27:39.447Z,9.91
2019-03-29T20:32:44.094Z,9.67
2019-03-29T20:37:48.449Z,9.56
2019-03-29T20:42:52.817Z,9.41
2019-03-29T20:47:57.248Z,9.51
2019-03-29T20:53:01.726Z,9.42
2019-03-29T20:58:06.088Z,9.35
2019-03-29T21:03:10.518Z,8.93
2019-03-29T21:08:14.948Z,8.82
2019-03-29T21:13:19.291Z,8.67
2019-03-29T21:18:23.649Z,8.79
2019-03-29T21:23:28.014Z,8.71
2019-03-29T21:28:35.056Z,8.72
2019-03-29T21:33:40.671Z,8.60
2019-03-29T21:38:44.596Z,8.79
2019-03-29T21:43:49.724Z,8.62
2019-03-29T21:48:54.134Z,8.25
2019-03-29T21:53:58.494Z,8.30
2019-03-29T21:59:02.849Z,8.41
2019-03-29T22:04:07.293Z,8.31
2019-03-29T22:09:11.709Z,8.19
2019-03-29T22:14:16.109Z,8.12
2019-03-29T22:19:20.505Z,8.02
2019-03-29T22:24:24.984Z,7.79
2019-03-29T22:29:29.335Z,7.77
2019-03-29T22:34:33.713Z,7.76
2019-03-29T22:39:38.094Z,7.71
2019-03-29T22:44:42.643Z,7.64
2019-03-29T22:49:46.990Z,7.70
2019-03-29T22:54:51.364Z,7.62
2019-03-29T22:59:55.722Z,7.59
2019-03-29T23:05:00.101Z,7.48
2019-03-29T23:10:06.338Z,7.26
2019-03-29T23:15:10.798Z,7.42
2019-03-29T23:20:15.238Z,7.41
2019-03-29T23:25:19.579Z,6.94
2019-03-29T23:30:24.090Z,6.91
2019-03-29T23:35:28.491Z,7.25
2019-03-29T23:40:32.871Z,6.74
2019-03-29T23:45:37.243Z,7.30
2019-03-29T23:50:41.696Z,6.92
2019-03-29T23:55:46.051Z,6.66
